CheckWX is a tool to help pilots better visualize weather data.  It is not intended as a substitute for an official pre-flight weather briefing.

19:15:58 UTC

KSMO METAR
Santa Monica Municipal Airport
Santa Monica, California, USA
Current

25 mins ago

KSMO 121851Z 23004KT 6SM HZ CLR 17/13 A3007 RMK AO2 SLP183 T01720128
Observed
Nov-12 @ 18:51 UTC
Wind
  • 230° at 4 KTS
Visibility
6 SM
Flight Rules
VFR
Conditions
Haze
Cloud Levels
  • Clear skies
Temperature
17°C / 63°F
Dewpoint
13°C / 55°F
Humidity
77%
Altimeter
30.07" Hg
Pressure
1018.32 hPa
Previous

1 hour ago

KSMO 121751Z 22004KT 4SM HZ CLR 17/13 A3009 RMK AO2 SLP187 T01720128 10178 20128 50005
Observed
Nov-12 @ 17:51 UTC
Wind
  • 220° at 4 KTS
Visibility
4 SM
Flight Rules
MVFR
Conditions
Haze
Cloud Levels
  • Clear skies
Temperature
17°C / 63°F
Dewpoint
13°C / 55°F
Humidity
77%
Altimeter
30.09" Hg
Pressure
1018.92 hPa
Previous

2 hours ago

KSMO 121651Z 00000KT 3SM BR SCT006 15/13 A3009 RMK AO2 SLP189 T01500128
Observed
Nov-12 @ 16:51 UTC
Visibility
3 SM
Flight Rules
MVFR
Conditions
Mist
Cloud Levels
  • Scattered at 600' AGL
Temperature
15°C / 59°F
Dewpoint
13°C / 55°F
Humidity
88%
Altimeter
30.09" Hg
Pressure
1018.92 hPa